sensor_id;sensor_type;location;lat;lon;timestamp;P1;durP1;ratioP1;P2;durP2;ratioP2
25946;SDS011;13745;51.470;9.894;2023-07-16T00:01:56;3.67;;;2.60;;
25946;SDS011;13745;51.470;9.894;2023-07-16T00:04:43;3.10;;;2.33;;
25946;SDS011;13745;51.470;9.894;2023-07-16T00:07:28;2.85;;;2.47;;
25946;SDS011;13745;51.470;9.894;2023-07-16T00:10:13;3.65;;;2.58;;
25946;SDS011;13745;51.470;9.894;2023-07-16T00:12:59;3.25;;;2.33;;
25946;SDS011;13745;51.470;9.894;2023-07-16T00:15:44;4.93;;;2.70;;
25946;SDS011;13745;51.470;9.894;2023-07-16T00:18:29;4.72;;;2.65;;
25946;SDS011;13745;51.470;9.894;2023-07-16T00:21:15;7.10;;;2.50;;
25946;SDS011;13745;51.470;9.894;2023-07-16T00:24:01;2.78;;;2.45;;
25946;SDS011;13745;51.470;9.894;2023-07-16T00:26:46;4.18;;;2.40;;
25946;SDS011;13745;51.470;9.894;2023-07-16T00:29:31;5.35;;;2.38;;
25946;SDS011;13745;51.470;9.894;2023-07-16T00:32:17;4.72;;;2.13;;
25946;SDS011;13745;51.470;9.894;2023-07-16T00:35:02;2.15;;;1.90;;
25946;SDS011;13745;51.470;9.894;2023-07-16T00:37:48;4.00;;;2.30;;
25946;SDS011;13745;51.470;9.894;2023-07-16T00:40:34;2.60;;;2.10;;
25946;SDS011;13745;51.470;9.894;2023-07-16T00:43:19;3.35;;;2.40;;
25946;SDS011;13745;51.470;9.894;2023-07-16T00:46:04;4.13;;;2.20;;
25946;SDS011;13745;51.470;9.894;2023-07-16T00:48:49;3.95;;;1.88;;
25946;SDS011;13745;51.470;9.894;2023-07-16T00:51:34;2.70;;;2.00;;
25946;SDS011;13745;51.470;9.894;2023-07-16T00:54:21;3.70;;;2.67;;
25946;SDS011;13745;51.470;9.894;2023-07-16T00:57:07;4.20;;;2.53;;
25946;SDS011;13745;51.470;9.894;2023-07-16T00:59:53;2.72;;;2.15;;
25946;SDS011;13745;51.470;9.894;2023-07-16T01:02:38;2.40;;;2.20;;
25946;SDS011;13745;51.470;9.894;2023-07-16T01:05:24;3.72;;;3.00;;
25946;SDS011;13745;51.470;9.894;2023-07-16T01:08:14;5.28;;;2.78;;
25946;SDS011;13745;51.470;9.894;2023-07-16T01:11:06;8.57;;;2.70;;
25946;SDS011;13745;51.470;9.894;2023-07-16T01:13:52;2.75;;;2.40;;
25946;SDS011;13745;51.470;9.894;2023-07-16T01:16:40;4.40;;;2.85;;
25946;SDS011;13745;51.470;9.894;2023-07-16T01:19:25;3.92;;;3.28;;
25946;SDS011;13745;51.470;9.894;2023-07-16T01:22:16;3.65;;;2.35;;
25946;SDS011;13745;51.470;9.894;2023-07-16T01:25:19;3.22;;;2.50;;
25946;SDS011;13745;51.470;9.894;2023-07-16T01:28:33;5.85;;;2.10;;
25946;SDS011;13745;51.470;9.894;2023-07-16T01:31:30;2.47;;;2.25;;
25946;SDS011;13745;51.470;9.894;2023-07-16T01:34:17;2.40;;;2.20;;
25946;SDS011;13745;51.470;9.894;2023-07-16T01:37:04;3.75;;;2.50;;
25946;SDS011;13745;51.470;9.894;2023-07-16T01:39:50;2.67;;;2.08;;
25946;SDS011;13745;51.470;9.894;2023-07-16T01:42:35;2.70;;;2.28;;
25946;SDS011;13745;51.470;9.894;2023-07-16T01:45:20;2.63;;;2.35;;
25946;SDS011;13745;51.470;9.894;2023-07-16T01:48:09;3.17;;;2.05;;
25946;SDS011;13745;51.470;9.894;2023-07-16T01:51:02;3.15;;;1.80;;
25946;SDS011;13745;51.470;9.894;2023-07-16T01:53:48;4.55;;;2.00;;
25946;SDS011;13745;51.470;9.894;2023-07-16T01:56:33;3.88;;;2.15;;
25946;SDS011;13745;51.470;9.894;2023-07-16T01:59:18;3.80;;;1.63;;
25946;SDS011;13745;51.470;9.894;2023-07-16T02:02:03;3.97;;;2.45;;
25946;SDS011;13745;51.470;9.894;2023-07-16T02:04:50;4.25;;;1.90;;
25946;SDS011;13745;51.470;9.894;2023-07-16T02:07:36;3.85;;;1.80;;
25946;SDS011;13745;51.470;9.894;2023-07-16T02:10:21;3.38;;;1.65;;
25946;SDS011;13745;51.470;9.894;2023-07-16T02:13:06;2.92;;;1.40;;
25946;SDS011;13745;51.470;9.894;2023-07-16T02:15:53;2.58;;;1.50;;
25946;SDS011;13745;51.470;9.894;2023-07-16T02:18:38;2.22;;;1.48;;
25946;SDS011;13745;51.470;9.894;2023-07-16T02:21:24;3.15;;;1.55;;
25946;SDS011;13745;51.470;9.894;2023-07-16T02:24:09;3.85;;;1.90;;
25946;SDS011;13745;51.470;9.894;2023-07-16T02:26:55;2.50;;;1.60;;
25946;SDS011;13745;51.470;9.894;2023-07-16T02:29:40;3.90;;;1.45;;
25946;SDS011;13745;51.470;9.894;2023-07-16T02:32:25;2.53;;;1.42;;
25946;SDS011;13745;51.470;9.894;2023-07-16T02:35:10;4.93;;;1.67;;
25946;SDS011;13745;51.470;9.894;2023-07-16T02:37:57;2.63;;;1.52;;
25946;SDS011;13745;51.470;9.894;2023-07-16T02:40:44;2.58;;;1.73;;
25946;SDS011;13745;51.470;9.894;2023-07-16T02:43:29;3.45;;;1.95;;
25946;SDS011;13745;51.470;9.894;2023-07-16T02:46:14;4.05;;;1.55;;
25946;SDS011;13745;51.470;9.894;2023-07-16T02:48:59;3.03;;;1.45;;
25946;SDS011;13745;51.470;9.894;2023-07-16T02:51:44;2.65;;;1.40;;
25946;SDS011;13745;51.470;9.894;2023-07-16T02:54:31;2.00;;;1.50;;
25946;SDS011;13745;51.470;9.894;2023-07-16T02:57:16;4.05;;;1.55;;
25946;SDS011;13745;51.470;9.894;2023-07-16T03:00:02;4.68;;;1.50;;
25946;SDS011;13745;51.470;9.894;2023-07-16T03:02:48;4.63;;;1.70;;
25946;SDS011;13745;51.470;9.894;2023-07-16T03:05:33;3.15;;;1.92;;
25946;SDS011;13745;51.470;9.894;2023-07-16T03:08:19;2.65;;;1.60;;
25946;SDS011;13745;51.470;9.894;2023-07-16T03:11:05;2.17;;;1.48;;
25946;SDS011;13745;51.470;9.894;2023-07-16T03:13:51;4.75;;;1.65;;
25946;SDS011;13745;51.470;9.894;2023-07-16T03:16:36;4.03;;;1.67;;
25946;SDS011;13745;51.470;9.894;2023-07-16T03:19:21;4.25;;;2.40;;
25946;SDS011;13745;51.470;9.894;2023-07-16T03:22:06;2.88;;;1.80;;
25946;SDS011;13745;51.470;9.894;2023-07-16T03:24:51;5.43;;;1.55;;
25946;SDS011;13745;51.470;9.894;2023-07-16T03:27:38;4.60;;;1.55;;
25946;SDS011;13745;51.470;9.894;2023-07-16T03:30:23;3.22;;;1.70;;
25946;SDS011;13745;51.470;9.894;2023-07-16T03:33:08;2.35;;;1.50;;
25946;SDS011;13745;51.470;9.894;2023-07-16T03:35:53;2.40;;;1.70;;
25946;SDS011;13745;51.470;9.894;2023-07-16T03:38:38;3.33;;;1.67;;
25946;SDS011;13745;51.470;9.894;2023-07-16T03:41:24;2.90;;;1.40;;
25946;SDS011;13745;51.470;9.894;2023-07-16T03:44:11;6.25;;;1.98;;
25946;SDS011;13745;51.470;9.894;2023-07-16T03:46:56;3.30;;;1.60;;
25946;SDS011;13745;51.470;9.894;2023-07-16T03:49:41;4.57;;;1.60;;
25946;SDS011;13745;51.470;9.894;2023-07-16T03:52:26;4.95;;;1.50;;
25946;SDS011;13745;51.470;9.894;2023-07-16T03:55:12;3.22;;;1.90;;
25946;SDS011;13745;51.470;9.894;2023-07-16T03:57:57;3.88;;;1.55;;
25946;SDS011;13745;51.470;9.894;2023-07-16T04:00:45;3.58;;;1.80;;
25946;SDS011;13745;51.470;9.894;2023-07-16T04:03:30;1.60;;;1.40;;
25946;SDS011;13745;51.470;9.894;2023-07-16T04:06:15;5.25;;;1.60;;
25946;SDS011;13745;51.470;9.894;2023-07-16T04:09:00;2.55;;;1.75;;
25946;SDS011;13745;51.470;9.894;2023-07-16T04:11:46;4.25;;;1.63;;
25946;SDS011;13745;51.470;9.894;2023-07-16T04:14:31;4.65;;;1.63;;
25946;SDS011;13745;51.470;9.894;2023-07-16T04:17:18;3.15;;;1.45;;
25946;SDS011;13745;51.470;9.894;2023-07-16T04:20:03;3.97;;;1.65;;
25946;SDS011;13745;51.470;9.894;2023-07-16T04:22:50;4.40;;;1.80;;
25946;SDS011;13745;51.470;9.894;2023-07-16T04:25:35;8.82;;;1.52;;
25946;SDS011;13745;51.470;9.894;2023-07-16T04:28:20;3.88;;;1.50;;
25946;SDS011;13745;51.470;9.894;2023-07-16T04:31:06;4.13;;;1.42;;
25946;SDS011;13745;51.470;9.894;2023-07-16T04:33:52;3.83;;;1.80;;
25946;SDS011;13745;51.470;9.894;2023-07-16T04:36:37;3.70;;;1.58;;
25946;SDS011;13745;51.470;9.894;2023-07-16T04:39:23;2.42;;;1.20;;
25946;SDS011;13745;51.470;9.894;2023-07-16T04:42:09;5.22;;;1.25;;
25946;SDS011;13745;51.470;9.894;2023-07-16T04:44:54;3.97;;;1.35;;
25946;SDS011;13745;51.470;9.894;2023-07-16T04:47:39;4.57;;;1.55;;
25946;SDS011;13745;51.470;9.894;2023-07-16T04:50:26;6.57;;;1.67;;
25946;SDS011;13745;51.470;9.894;2023-07-16T04:53:11;3.90;;;1.80;;
25946;SDS011;13745;51.470;9.894;2023-07-16T04:55:56;3.33;;;1.40;;
25946;SDS011;13745;51.470;9.894;2023-07-16T04:58:41;3.70;;;1.50;;
25946;SDS011;13745;51.470;9.894;2023-07-16T05:01:27;4.28;;;1.40;;
25946;SDS011;13745;51.470;9.894;2023-07-16T05:04:12;3.40;;;1.10;;
25946;SDS011;13745;51.470;9.894;2023-07-16T05:06:59;6.20;;;1.50;;
25946;SDS011;13745;51.470;9.894;2023-07-16T05:09:45;6.50;;;1.67;;
25946;SDS011;13745;51.470;9.894;2023-07-16T05:12:30;1.67;;;1.30;;
25946;SDS011;13745;51.470;9.894;2023-07-16T05:15:15;4.63;;;1.50;;
25946;SDS011;13745;51.470;9.894;2023-07-16T05:18:01;3.05;;;1.40;;
25946;SDS011;13745;51.470;9.894;2023-07-16T05:20:46;2.90;;;1.17;;
25946;SDS011;13745;51.470;9.894;2023-07-16T05:23:33;2.67;;;1.30;;
25946;SDS011;13745;51.470;9.894;2023-07-16T05:26:18;5.43;;;1.50;;
25946;SDS011;13745;51.470;9.894;2023-07-16T05:29:03;4.50;;;1.20;;
25946;SDS011;13745;51.470;9.894;2023-07-16T05:31:48;4.70;;;1.60;;
25946;SDS011;13745;51.470;9.894;2023-07-16T05:34:33;4.25;;;1.13;;
25946;SDS011;13745;51.470;9.894;2023-07-16T05:37:19;2.92;;;1.25;;
25946;SDS011;13745;51.470;9.894;2023-07-16T05:40:06;2.97;;;1.10;;
25946;SDS011;13745;51.470;9.894;2023-07-16T05:42:52;3.88;;;1.25;;
25946;SDS011;13745;51.470;9.894;2023-07-16T05:45:37;3.03;;;1.10;;
25946;SDS011;13745;51.470;9.894;2023-07-16T05:48:23;3.53;;;1.20;;
25946;SDS011;13745;51.470;9.894;2023-07-16T05:51:08;3.90;;;1.33;;
25946;SDS011;13745;51.470;9.894;2023-07-16T05:53:53;3.50;;;1.30;;
25946;SDS011;13745;51.470;9.894;2023-07-16T05:56:40;4.03;;;1.17;;
25946;SDS011;13745;51.470;9.894;2023-07-16T05:59:25;3.25;;;1.48;;
25946;SDS011;13745;51.470;9.894;2023-07-16T06:02:10;4.95;;;1.15;;
25946;SDS011;13745;51.470;9.894;2023-07-16T06:04:55;4.07;;;1.13;;
25946;SDS011;13745;51.470;9.894;2023-07-16T06:07:40;3.92;;;1.23;;
25946;SDS011;13745;51.470;9.894;2023-07-16T06:10:25;3.38;;;1.23;;
25946;SDS011;13745;51.470;9.894;2023-07-16T06:13:12;3.88;;;1.30;;
25946;SDS011;13745;51.470;9.894;2023-07-16T06:15:57;3.58;;;1.13;;
25946;SDS011;13745;51.470;9.894;2023-07-16T06:18:42;3.95;;;1.27;;
25946;SDS011;13745;51.470;9.894;2023-07-16T06:21:27;4.55;;;1.20;;
25946;SDS011;13745;51.470;9.894;2023-07-16T06:24:12;7.53;;;1.27;;
25946;SDS011;13745;51.470;9.894;2023-07-16T06:26:59;3.92;;;1.20;;
25946;SDS011;13745;51.470;9.894;2023-07-16T06:29:45;7.32;;;1.92;;
25946;SDS011;13745;51.470;9.894;2023-07-16T06:32:30;6.75;;;1.30;;
25946;SDS011;13745;51.470;9.894;2023-07-16T06:35:16;5.78;;;1.27;;
25946;SDS011;13745;51.470;9.894;2023-07-16T06:38:01;4.90;;;1.60;;
25946;SDS011;13745;51.470;9.894;2023-07-16T06:40:47;4.90;;;1.20;;
25946;SDS011;13745;51.470;9.894;2023-07-16T06:43:33;7.57;;;1.63;;
25946;SDS011;13745;51.470;9.894;2023-07-16T06:46:19;3.55;;;1.35;;
25946;SDS011;13745;51.470;9.894;2023-07-16T06:49:05;3.38;;;1.35;;
25946;SDS011;13745;51.470;9.894;2023-07-16T06:51:50;6.03;;;1.10;;
25946;SDS011;13745;51.470;9.894;2023-07-16T06:54:35;2.50;;;1.13;;
25946;SDS011;13745;51.470;9.894;2023-07-16T06:57:20;7.57;;;1.60;;
25946;SDS011;13745;51.470;9.894;2023-07-16T07:00:06;4.93;;;1.30;;
25946;SDS011;13745;51.470;9.894;2023-07-16T07:02:56;3.35;;;1.63;;
25946;SDS011;13745;51.470;9.894;2023-07-16T07:05:41;7.00;;;1.35;;
25946;SDS011;13745;51.470;9.894;2023-07-16T07:08:26;2.92;;;1.13;;
25946;SDS011;13745;51.470;9.894;2023-07-16T07:11:11;7.70;;;1.52;;
25946;SDS011;13745;51.470;9.894;2023-07-16T07:13:57;6.10;;;1.48;;
25946;SDS011;13745;51.470;9.894;2023-07-16T07:16:42;4.82;;;1.23;;
25946;SDS011;13745;51.470;9.894;2023-07-16T07:19:28;4.18;;;0.98;;
25946;SDS011;13745;51.470;9.894;2023-07-16T07:22:14;2.28;;;1.27;;
25946;SDS011;13745;51.470;9.894;2023-07-16T07:24:58;2.70;;;1.20;;
25946;SDS011;13745;51.470;9.894;2023-07-16T07:27:43;5.68;;;1.20;;
25946;SDS011;13745;51.470;9.894;2023-07-16T07:30:28;3.47;;;1.10;;
25946;SDS011;13745;51.470;9.894;2023-07-16T07:33:13;6.20;;;1.48;;
25946;SDS011;13745;51.470;9.894;2023-07-16T07:36:00;5.60;;;1.05;;
25946;SDS011;13745;51.470;9.894;2023-07-16T07:38:45;3.53;;;1.15;;
25946;SDS011;13745;51.470;9.894;2023-07-16T07:41:30;1.55;;;1.20;;
25946;SDS011;13745;51.470;9.894;2023-07-16T07:44:15;4.43;;;1.20;;
25946;SDS011;13745;51.470;9.894;2023-07-16T07:47:00;4.13;;;1.15;;
25946;SDS011;13745;51.470;9.894;2023-07-16T07:49:45;13.30;;;1.70;;
25946;SDS011;13745;51.470;9.894;2023-07-16T07:52:32;5.90;;;1.20;;
25946;SDS011;13745;51.470;9.894;2023-07-16T07:55:17;3.15;;;1.38;;
25946;SDS011;13745;51.470;9.894;2023-07-16T07:58:03;4.75;;;1.42;;
25946;SDS011;13745;51.470;9.894;2023-07-16T08:00:48;4.95;;;1.08;;
25946;SDS011;13745;51.470;9.894;2023-07-16T08:03:33;8.10;;;1.50;;
25946;SDS011;13745;51.470;9.894;2023-07-16T08:06:19;3.53;;;1.23;;
25946;SDS011;13745;51.470;9.894;2023-07-16T08:09:05;6.55;;;1.65;;
25946;SDS011;13745;51.470;9.894;2023-07-16T08:11:50;4.00;;;1.15;;
25946;SDS011;13745;51.470;9.894;2023-07-16T08:14:36;3.40;;;1.20;;
25946;SDS011;13745;51.470;9.894;2023-07-16T08:17:21;2.47;;;0.90;;
25946;SDS011;13745;51.470;9.894;2023-07-16T08:20:06;4.97;;;2.00;;
25946;SDS011;13745;51.470;9.894;2023-07-16T08:22:52;4.45;;;1.73;;
25946;SDS011;13745;51.470;9.894;2023-07-16T08:25:38;5.28;;;1.33;;
25946;SDS011;13745;51.470;9.894;2023-07-16T08:28:24;2.35;;;1.42;;
25946;SDS011;13745;51.470;9.894;2023-07-16T08:31:09;7.80;;;1.75;;
25946;SDS011;13745;51.470;9.894;2023-07-16T08:33:55;9.02;;;1.65;;
25946;SDS011;13745;51.470;9.894;2023-07-16T08:36:40;2.17;;;1.20;;
25946;SDS011;13745;51.470;9.894;2023-07-16T08:39:26;4.13;;;1.52;;
25946;SDS011;13745;51.470;9.894;2023-07-16T08:42:13;2.95;;;1.25;;
25946;SDS011;13745;51.470;9.894;2023-07-16T08:44:59;4.35;;;1.67;;
25946;SDS011;13745;51.470;9.894;2023-07-16T08:47:45;2.83;;;1.17;;
25946;SDS011;13745;51.470;9.894;2023-07-16T08:50:30;3.05;;;1.30;;
25946;SDS011;13745;51.470;9.894;2023-07-16T08:53:16;4.43;;;1.27;;
25946;SDS011;13745;51.470;9.894;2023-07-16T08:56:02;5.53;;;1.70;;
25946;SDS011;13745;51.470;9.894;2023-07-16T08:58:50;1.63;;;0.95;;
25946;SDS011;13745;51.470;9.894;2023-07-16T09:01:39;4.15;;;1.20;;
25946;SDS011;13745;51.470;9.894;2023-07-16T09:04:24;3.58;;;1.40;;
25946;SDS011;13745;51.470;9.894;2023-07-16T09:07:10;9.25;;;1.25;;
25946;SDS011;13745;51.470;9.894;2023-07-16T09:09:55;2.78;;;1.25;;
25946;SDS011;13745;51.470;9.894;2023-07-16T09:12:45;3.08;;;1.25;;
25946;SDS011;13745;51.470;9.894;2023-07-16T09:15:32;2.17;;;1.10;;
25946;SDS011;13745;51.470;9.894;2023-07-16T09:18:19;2.85;;;1.30;;
25946;SDS011;13745;51.470;9.894;2023-07-16T09:21:05;3.70;;;1.33;;
25946;SDS011;13745;51.470;9.894;2023-07-16T09:23:51;3.85;;;1.27;;
25946;SDS011;13745;51.470;9.894;2023-07-16T09:26:37;4.60;;;1.40;;
25946;SDS011;13745;51.470;9.894;2023-07-16T09:29:24;2.75;;;1.42;;
25946;SDS011;13745;51.470;9.894;2023-07-16T09:32:12;4.38;;;1.42;;
25946;SDS011;13745;51.470;9.894;2023-07-16T09:34:58;2.88;;;1.50;;
25946;SDS011;13745;51.470;9.894;2023-07-16T09:37:43;5.45;;;2.08;;
25946;SDS011;13745;51.470;9.894;2023-07-16T09:40:29;3.40;;;1.50;;
25946;SDS011;13745;51.470;9.894;2023-07-16T09:43:14;3.20;;;1.38;;
25946;SDS011;13745;51.470;9.894;2023-07-16T09:46:00;3.85;;;1.45;;
25946;SDS011;13745;51.470;9.894;2023-07-16T09:48:46;4.82;;;1.52;;
25946;SDS011;13745;51.470;9.894;2023-07-16T09:51:31;4.95;;;1.50;;
25946;SDS011;13745;51.470;9.894;2023-07-16T09:54:19;2.75;;;1.48;;
25946;SDS011;13745;51.470;9.894;2023-07-16T09:57:04;6.10;;;1.60;;
25946;SDS011;13745;51.470;9.894;2023-07-16T09:59:51;2.95;;;1.50;;
25946;SDS011;13745;51.470;9.894;2023-07-16T10:02:39;5.03;;;1.48;;
25946;SDS011;13745;51.470;9.894;2023-07-16T10:05:27;3.78;;;1.67;;
25946;SDS011;13745;51.470;9.894;2023-07-16T10:08:17;2.88;;;1.25;;
25946;SDS011;13745;51.470;9.894;2023-07-16T10:11:03;4.65;;;1.88;;
25946;SDS011;13745;51.470;9.894;2023-07-16T10:13:49;3.50;;;1.65;;
25946;SDS011;13745;51.470;9.894;2023-07-16T10:16:35;4.22;;;1.80;;
25946;SDS011;13745;51.470;9.894;2023-07-16T10:19:22;3.33;;;1.70;;
25946;SDS011;13745;51.470;9.894;2023-07-16T10:22:09;5.57;;;1.73;;
25946;SDS011;13745;51.470;9.894;2023-07-16T10:24:54;5.57;;;1.70;;
25946;SDS011;13745;51.470;9.894;2023-07-16T10:27:39;4.07;;;1.77;;
25946;SDS011;13745;51.470;9.894;2023-07-16T10:30:25;4.28;;;2.10;;
25946;SDS011;13745;51.470;9.894;2023-07-16T10:33:11;6.15;;;1.75;;
25946;SDS011;13745;51.470;9.894;2023-07-16T10:35:57;4.97;;;1.60;;
25946;SDS011;13745;51.470;9.894;2023-07-16T10:38:44;6.72;;;2.00;;
25946;SDS011;13745;51.470;9.894;2023-07-16T10:41:30;6.13;;;2.13;;
25946;SDS011;13745;51.470;9.894;2023-07-16T10:44:15;4.88;;;1.60;;
25946;SDS011;13745;51.470;9.894;2023-07-16T10:47:00;3.75;;;1.88;;
25946;SDS011;13745;51.470;9.894;2023-07-16T10:49:46;4.18;;;1.98;;
25946;SDS011;13745;51.470;9.894;2023-07-16T10:52:31;6.18;;;1.90;;
25946;SDS011;13745;51.470;9.894;2023-07-16T10:55:18;6.15;;;2.13;;
25946;SDS011;13745;51.470;9.894;2023-07-16T10:58:04;2.55;;;1.85;;
25946;SDS011;13745;51.470;9.894;2023-07-16T11:00:50;5.07;;;2.72;;
25946;SDS011;13745;51.470;9.894;2023-07-16T11:03:35;4.65;;;2.00;;
25946;SDS011;13745;51.470;9.894;2023-07-16T11:06:21;3.95;;;1.88;;
25946;SDS011;13745;51.470;9.894;2023-07-16T11:09:06;4.47;;;2.40;;
25946;SDS011;13745;51.470;9.894;2023-07-16T11:11:53;5.13;;;1.77;;
25946;SDS011;13745;51.470;9.894;2023-07-16T11:14:42;3.25;;;1.98;;
25946;SDS011;13745;51.470;9.894;2023-07-16T11:17:29;7.13;;;2.35;;
25946;SDS011;13745;51.470;9.894;2023-07-16T11:20:14;4.00;;;2.20;;
25946;SDS011;13745;51.470;9.894;2023-07-16T11:22:59;4.18;;;2.17;;
25946;SDS011;13745;51.470;9.894;2023-07-16T11:25:45;5.18;;;2.03;;
25946;SDS011;13745;51.470;9.894;2023-07-16T11:28:39;6.97;;;2.20;;
25946;SDS011;13745;51.470;9.894;2023-07-16T11:31:25;3.92;;;2.00;;
25946;SDS011;13745;51.470;9.894;2023-07-16T11:34:12;4.13;;;2.03;;
25946;SDS011;13745;51.470;9.894;2023-07-16T11:37:06;2.85;;;1.85;;
25946;SDS011;13745;51.470;9.894;2023-07-16T11:39:54;7.50;;;2.20;;
25946;SDS011;13745;51.470;9.894;2023-07-16T11:42:40;5.93;;;2.42;;
25946;SDS011;13745;51.470;9.894;2023-07-16T11:45:27;3.83;;;1.90;;
25946;SDS011;13745;51.470;9.894;2023-07-16T11:48:13;3.92;;;1.90;;
25946;SDS011;13745;51.470;9.894;2023-07-16T11:50:58;7.70;;;2.13;;
25946;SDS011;13745;51.470;9.894;2023-07-16T11:53:44;4.60;;;1.90;;
25946;SDS011;13745;51.470;9.894;2023-07-16T11:56:30;4.97;;;2.22;;
25946;SDS011;13745;51.470;9.894;2023-07-16T11:59:15;6.38;;;2.28;;
25946;SDS011;13745;51.470;9.894;2023-07-16T12:02:05;3.55;;;2.00;;
25946;SDS011;13745;51.470;9.894;2023-07-16T12:04:50;5.72;;;2.13;;
25946;SDS011;13745;51.470;9.894;2023-07-16T12:07:36;4.35;;;2.22;;
25946;SDS011;13745;51.470;9.894;2023-07-16T12:10:22;4.82;;;2.08;;
25946;SDS011;13745;51.470;9.894;2023-07-16T12:13:07;3.05;;;1.83;;
25946;SDS011;13745;51.470;9.894;2023-07-16T12:15:52;5.05;;;2.00;;
25946;SDS011;13745;51.470;9.894;2023-07-16T12:18:38;6.38;;;2.33;;
25946;SDS011;13745;51.470;9.894;2023-07-16T12:21:24;2.50;;;1.90;;
25946;SDS011;13745;51.470;9.894;2023-07-16T12:24:09;4.85;;;2.20;;
25946;SDS011;13745;51.470;9.894;2023-07-16T12:26:55;4.03;;;1.85;;
25946;SDS011;13745;51.470;9.894;2023-07-16T12:29:40;4.10;;;2.20;;
25946;SDS011;13745;51.470;9.894;2023-07-16T12:32:25;3.65;;;1.85;;
25946;SDS011;13745;51.470;9.894;2023-07-16T12:35:11;2.67;;;1.95;;
25946;SDS011;13745;51.470;9.894;2023-07-16T12:37:58;4.10;;;2.20;;
25946;SDS011;13745;51.470;9.894;2023-07-16T12:40:43;4.25;;;1.90;;
25946;SDS011;13745;51.470;9.894;2023-07-16T12:43:28;8.65;;;2.03;;
25946;SDS011;13745;51.470;9.894;2023-07-16T12:46:13;4.43;;;2.65;;
25946;SDS011;13745;51.470;9.894;2023-07-16T12:48:58;4.10;;;1.90;;
25946;SDS011;13745;51.470;9.894;2023-07-16T12:51:45;4.28;;;1.90;;
25946;SDS011;13745;51.470;9.894;2023-07-16T12:54:32;3.88;;;2.58;;
25946;SDS011;13745;51.470;9.894;2023-07-16T12:57:18;4.45;;;2.10;;
25946;SDS011;13745;51.470;9.894;2023-07-16T13:00:03;3.55;;;1.92;;
25946;SDS011;13745;51.470;9.894;2023-07-16T13:02:49;6.47;;;2.00;;
25946;SDS011;13745;51.470;9.894;2023-07-16T13:05:34;5.15;;;2.28;;
25946;SDS011;13745;51.470;9.894;2023-07-16T13:08:21;2.53;;;1.92;;
25946;SDS011;13745;51.470;9.894;2023-07-16T13:11:06;3.33;;;1.90;;
25946;SDS011;13745;51.470;9.894;2023-07-16T13:13:51;5.82;;;2.40;;
25946;SDS011;13745;51.470;9.894;2023-07-16T13:16:37;7.15;;;2.40;;
25946;SDS011;13745;51.470;9.894;2023-07-16T13:19:22;4.43;;;2.50;;
25946;SDS011;13745;51.470;9.894;2023-07-16T13:22:08;5.22;;;2.38;;
25946;SDS011;13745;51.470;9.894;2023-07-16T13:24:54;7.00;;;2.50;;
25946;SDS011;13745;51.470;9.894;2023-07-16T13:27:39;6.03;;;2.38;;
25946;SDS011;13745;51.470;9.894;2023-07-16T13:30:25;6.43;;;2.40;;
25946;SDS011;13745;51.470;9.894;2023-07-16T13:33:10;3.65;;;2.50;;
25946;SDS011;13745;51.470;9.894;2023-07-16T13:35:56;3.35;;;2.30;;
25946;SDS011;13745;51.470;9.894;2023-07-16T13:38:43;4.28;;;2.53;;
25946;SDS011;13745;51.470;9.894;2023-07-16T13:41:31;5.30;;;2.20;;
25946;SDS011;13745;51.470;9.894;2023-07-16T13:44:16;6.85;;;2.65;;
25946;SDS011;13745;51.470;9.894;2023-07-16T13:47:02;4.50;;;2.30;;
25946;SDS011;13745;51.470;9.894;2023-07-16T13:49:47;6.07;;;2.72;;
25946;SDS011;13745;51.470;9.894;2023-07-16T13:52:33;4.55;;;2.47;;
25946;SDS011;13745;51.470;9.894;2023-07-16T13:55:18;3.05;;;2.10;;
25946;SDS011;13745;51.470;9.894;2023-07-16T13:58:05;5.45;;;2.47;;
25946;SDS011;13745;51.470;9.894;2023-07-16T14:00:50;4.00;;;2.25;;
25946;SDS011;13745;51.470;9.894;2023-07-16T14:03:36;5.88;;;2.53;;
25946;SDS011;13745;51.470;9.894;2023-07-16T14:06:21;4.93;;;2.50;;
25946;SDS011;13745;51.470;9.894;2023-07-16T14:09:06;5.55;;;2.53;;
25946;SDS011;13745;51.470;9.894;2023-07-16T14:11:51;4.35;;;2.47;;
25946;SDS011;13745;51.470;9.894;2023-07-16T14:14:38;4.15;;;2.50;;
25946;SDS011;13745;51.470;9.894;2023-07-16T14:17:24;3.85;;;2.30;;
25946;SDS011;13745;51.470;9.894;2023-07-16T14:20:09;5.22;;;2.75;;
25946;SDS011;13745;51.470;9.894;2023-07-16T14:22:54;3.75;;;2.78;;
25946;SDS011;13745;51.470;9.894;2023-07-16T14:25:39;5.22;;;3.03;;
25946;SDS011;13745;51.470;9.894;2023-07-16T14:28:24;5.22;;;2.60;;
25946;SDS011;13745;51.470;9.894;2023-07-16T14:31:11;4.05;;;2.53;;
25946;SDS011;13745;51.470;9.894;2023-07-16T14:33:57;3.72;;;2.85;;
25946;SDS011;13745;51.470;9.894;2023-07-16T14:36:42;4.07;;;2.83;;
25946;SDS011;13745;51.470;9.894;2023-07-16T14:39:27;3.45;;;2.55;;
25946;SDS011;13745;51.470;9.894;2023-07-16T14:42:14;4.40;;;2.70;;
25946;SDS011;13745;51.470;9.894;2023-07-16T14:44:59;5.50;;;2.90;;
25946;SDS011;13745;51.470;9.894;2023-07-16T14:47:46;5.55;;;2.50;;
25946;SDS011;13745;51.470;9.894;2023-07-16T14:50:31;5.40;;;3.03;;
25946;SDS011;13745;51.470;9.894;2023-07-16T14:53:16;4.80;;;2.95;;
25946;SDS011;13745;51.470;9.894;2023-07-16T14:56:02;3.20;;;2.90;;
25946;SDS011;13745;51.470;9.894;2023-07-16T14:58:48;6.35;;;3.10;;
25946;SDS011;13745;51.470;9.894;2023-07-16T15:01:33;4.10;;;2.72;;
25946;SDS011;13745;51.470;9.894;2023-07-16T15:04:20;4.63;;;3.08;;
25946;SDS011;13745;51.470;9.894;2023-07-16T15:07:05;4.18;;;2.80;;
25946;SDS011;13745;51.470;9.894;2023-07-16T15:09:51;8.57;;;3.33;;
25946;SDS011;13745;51.470;9.894;2023-07-16T15:12:36;3.85;;;3.08;;
25946;SDS011;13745;51.470;9.894;2023-07-16T15:15:21;4.38;;;3.05;;
25946;SDS011;13745;51.470;9.894;2023-07-16T15:18:06;3.05;;;2.63;;
25946;SDS011;13745;51.470;9.894;2023-07-16T15:20:56;3.38;;;2.90;;
25946;SDS011;13745;51.470;9.894;2023-07-16T15:23:43;5.20;;;3.03;;
25946;SDS011;13745;51.470;9.894;2023-07-16T15:26:29;6.20;;;3.05;;
25946;SDS011;13745;51.470;9.894;2023-07-16T15:29:15;3.78;;;2.55;;
25946;SDS011;13745;51.470;9.894;2023-07-16T15:32:00;5.10;;;3.70;;
25946;SDS011;13745;51.470;9.894;2023-07-16T15:34:45;4.25;;;2.85;;
25946;SDS011;13745;51.470;9.894;2023-07-16T15:37:32;5.63;;;2.53;;
25946;SDS011;13745;51.470;9.894;2023-07-16T15:40:17;3.75;;;2.83;;
25946;SDS011;13745;51.470;9.894;2023-07-16T15:43:03;4.18;;;3.10;;
25946;SDS011;13745;51.470;9.894;2023-07-16T15:45:48;4.78;;;3.20;;
25946;SDS011;13745;51.470;9.894;2023-07-16T15:48:33;3.67;;;2.58;;
25946;SDS011;13745;51.470;9.894;2023-07-16T15:51:18;3.95;;;3.10;;
25946;SDS011;13745;51.470;9.894;2023-07-16T15:54:04;7.18;;;2.70;;
25946;SDS011;13745;51.470;9.894;2023-07-16T15:56:50;4.70;;;3.00;;
25946;SDS011;13745;51.470;9.894;2023-07-16T15:59:35;6.07;;;2.85;;
25946;SDS011;13745;51.470;9.894;2023-07-16T16:02:20;3.72;;;2.28;;
25946;SDS011;13745;51.470;9.894;2023-07-16T16:05:06;4.15;;;2.80;;
25946;SDS011;13745;51.470;9.894;2023-07-16T16:08:10;7.40;;;3.15;;
25946;SDS011;13745;51.470;9.894;2023-07-16T16:10:59;4.28;;;2.50;;
25946;SDS011;13745;51.470;9.894;2023-07-16T16:13:44;3.05;;;2.60;;
25946;SDS011;13745;51.470;9.894;2023-07-16T16:16:29;5.20;;;2.28;;
25946;SDS011;13745;51.470;9.894;2023-07-16T16:19:18;5.43;;;2.53;;
25946;SDS011;13745;51.470;9.894;2023-07-16T16:22:04;3.00;;;2.20;;
25946;SDS011;13745;51.470;9.894;2023-07-16T16:24:50;3.33;;;2.35;;
25946;SDS011;13745;51.470;9.894;2023-07-16T16:27:36;3.92;;;2.33;;
25946;SDS011;13745;51.470;9.894;2023-07-16T16:30:21;5.07;;;3.17;;
25946;SDS011;13745;51.470;9.894;2023-07-16T16:33:07;5.38;;;2.55;;
25946;SDS011;13745;51.470;9.894;2023-07-16T16:35:52;3.25;;;2.63;;
25946;SDS011;13745;51.470;9.894;2023-07-16T16:38:38;5.28;;;2.60;;
25946;SDS011;13745;51.470;9.894;2023-07-16T16:41:23;3.92;;;2.95;;